Time;durP1;ratioP1;P1;durP2;ratioP2;P2;SDS_P1;SDS_P2;PMS_P1;PMS_P2;Temp;Humidity;BMP_temperature;BMP_pressure;BME280_temperature;BME280_humidity;BME280_pressure;Samples;Min_cycle;Max_cycle;Signal;HPM_P1;HPM_P2
2022/08/09 00:01:47;;;;;;;12.88;11.93;;;;;;;15.17;54.61;101480.19;4986224;28;20042;-74
2022/08/09 00:04:14;;;;;;;13.02;11.75;;;;;;;15.11;54.30;101486.41;4983797;28;20038;-74
2022/08/09 00:06:39;;;;;;;13.63;12.52;;;;;;;15.04;54.66;101483.88;4967990;28;20045;-74
2022/08/09 00:09:05;;;;;;;12.73;11.52;;;;;;;15.05;55.53;101485.63;4984197;28;20039;-74
2022/08/09 00:11:30;;;;;;;13.18;11.93;;;;;;;15.00;54.79;101488.31;4976717;28;20046;-74
2022/08/09 00:13:55;;;;;;;13.65;12.52;;;;;;;14.93;55.56;101488.38;4985813;28;20039;-74
2022/08/09 00:16:21;;;;;;;13.00;11.90;;;;;;;14.92;55.27;101481.31;4982774;28;20034;-74
2022/08/09 00:18:48;;;;;;;12.70;11.82;;;;;;;14.97;54.78;101482.16;4985961;28;20069;-74
2022/08/09 00:21:13;;;;;;;12.80;11.57;;;;;;;14.93;55.20;101485.72;4979449;28;20508;-74
2022/08/09 00:23:39;;;;;;;11.88;11.18;;;;;;;14.88;55.40;101486.66;4984498;28;20034;-75
2022/08/09 00:26:05;;;;;;;12.77;11.88;;;;;;;14.73;56.25;101484.13;4985070;28;20057;-74
2022/08/09 00:28:31;;;;;;;13.02;11.75;;;;;;;14.71;55.98;101496.53;4983108;28;20046;-74
2022/08/09 00:30:57;;;;;;;12.73;11.93;;;;;;;14.75;55.51;101500.94;4985906;28;20052;-74
2022/08/09 00:33:22;;;;;;;12.70;11.75;;;;;;;14.79;55.49;101500.00;4983000;28;20035;-73
2022/08/09 00:35:48;;;;;;;13.13;12.23;;;;;;;14.80;55.48;101499.13;4985043;28;20034;-74
2022/08/09 00:38:14;;;;;;;13.18;12.38;;;;;;;14.79;54.71;101497.34;4984264;28;20633;-74
2022/08/09 00:40:40;;;;;;;12.60;11.80;;;;;;;14.85;54.89;101499.94;4983546;28;20043;-74
2022/08/09 00:43:06;;;;;;;14.23;12.90;;;;;;;14.73;55.56;101497.41;4964265;28;20065;-74
2022/08/09 00:45:31;;;;;;;12.85;11.75;;;;;;;14.71;55.17;101506.28;4982302;28;20042;-74
2022/08/09 00:47:56;;;;;;;12.75;11.85;;;;;;;14.63;55.61;101498.38;4985470;28;20035;-74
2022/08/09 00:50:25;;;;;;;13.05;12.15;;;;;;;14.59;56.15;101499.28;4980660;28;20566;-74
2022/08/09 00:52:51;;;;;;;13.10;12.20;;;;;;;14.53;56.39;101499.31;4983344;28;20094;-74
2022/08/09 00:55:16;;;;;;;11.43;10.52;;;;;;;14.55;56.13;101509.06;4981922;28;20073;-73
2022/08/09 00:57:42;;;;;;;13.05;12.15;;;;;;;14.55;56.24;101510.81;4985485;28;20039;-74
2022/08/09 01:00:08;;;;;;;11.73;10.90;;;;;;;14.52;55.78;101506.38;4982237;28;20090;-74
2022/08/09 01:02:38;;;;;;;13.07;12.02;;;;;;;14.47;56.35;101503.75;4967159;28;20165;-74
2022/08/09 01:05:15;;;;;;;11.50;10.70;;;;;;;14.50;56.62;101507.28;4984088;28;20082;-74
2022/08/09 01:08:05;;;;;;;12.75;11.93;;;;;;;14.51;56.53;101503.72;4982379;28;20382;-74
2022/08/09 01:10:42;;;;;;;12.23;11.43;;;;;;;14.43;56.31;101499.34;4981112;28;20093;-74
2022/08/09 01:13:39;;;;;;;11.88;11.07;;;;;;;14.40;57.06;101502.03;4975583;28;20425;-74
2022/08/09 01:16:07;;;;;;;12.05;11.23;;;;;;;14.36;56.85;101500.28;4987735;28;20084;-75
2022/08/09 01:18:35;;;;;;;11.60;10.88;;;;;;;14.24;57.37;101503.88;4982533;28;20038;-74
2022/08/09 01:21:19;;;;;;;11.95;11.13;;;;;;;14.15;58.61;101501.31;4982200;28;20488;-75
2022/08/09 01:24:01;;;;;;;11.48;10.77;;;;;;;14.09;59.04;101500.44;4985863;28;20466;-74
2022/08/09 01:27:03;;;;;;;11.88;11.07;;;;;;;14.10;58.76;101496.91;4981728;28;20045;-74
2022/08/09 01:29:39;;;;;;;11.13;10.23;;;;;;;14.11;58.32;101499.53;4983345;28;20113;-74
2022/08/09 01:32:08;;;;;;;11.85;10.95;;;;;;;14.10;58.32;101502.22;4972567;28;20109;-74
2022/08/09 01:34:36;;;;;;;11.52;10.55;;;;;;;14.06;58.39;101497.81;4983939;28;20109;-74
2022/08/09 01:37:05;;;;;;;12.25;11.25;;;;;;;14.04;58.45;101497.78;4983326;28;20449;-75
2022/08/09 01:39:34;;;;;;;11.27;10.45;;;;;;;14.03;58.91;101507.53;4981988;28;20050;-74
2022/08/09 01:42:01;;;;;;;11.27;10.27;;;;;;;13.93;59.13;101510.25;4984362;28;20078;-74
2022/08/09 01:44:28;;;;;;;11.52;10.52;;;;;;;13.87;60.07;101505.84;4982305;28;20137;-74
2022/08/09 01:46:56;;;;;;;10.85;9.95;;;;;;;13.83;60.95;101509.38;4981381;28;20497;-74
2022/08/09 01:49:23;;;;;;;10.05;9.32;;;;;;;13.82;60.60;101505.88;4984129;28;20066;-75
2022/08/09 01:51:51;;;;;;;10.85;9.98;;;;;;;13.80;60.22;101509.41;4980857;28;20034;-73
2022/08/09 01:54:30;;;;;;;10.02;9.23;;;;;;;13.77;60.59;101522.69;5078905;28;20356;-75
2022/08/09 01:56:59;;;;;;;12.00;10.60;;;;;;;13.68;61.34;101515.66;5068479;28;20086;-75
2022/08/09 01:59:26;;;;;;;11.18;9.82;;;;;;;13.71;62.04;101526.25;5062813;28;20044;-75
2022/08/09 02:01:53;;;;;;;10.00;9.27;;;;;;;13.73;63.52;101519.19;5066008;28;20098;-75
2022/08/09 02:04:21;;;;;;;10.20;9.18;;;;;;;13.79;61.97;101523.56;5048345;28;20041;-75
2022/08/09 02:07:08;;;;;;;9.32;8.63;;;;;;;13.76;61.92;101526.25;5063131;28;20388;-75
2022/08/09 02:09:51;;;;;;;10.48;9.57;;;;;;;13.68;61.96;101520.97;5062293;28;20049;-75
2022/08/09 02:12:20;;;;;;;9.82;9.10;;;;;;;13.62;61.70;101525.38;5045354;28;20041;-75
2022/08/09 02:14:49;;;;;;;9.60;8.70;;;;;;;13.58;61.73;101524.53;5047962;28;20060;-75
2022/08/09 02:17:17;;;;;;;9.70;8.77;;;;;;;13.55;62.35;101520.13;5047835;28;20045;-75
2022/08/09 02:19:43;;;;;;;9.40;8.60;;;;;;;13.52;62.57;101528.09;5048028;28;20047;-75
2022/08/09 02:22:38;;;;;;;10.38;8.75;;;;;;;13.50;63.23;101534.28;5047585;28;20029;-75
2022/08/09 02:25:08;;;;;;;10.00;9.10;;;;;;;13.50;61.86;101527.19;5011339;28;20047;-74
2022/08/09 02:27:37;;;;;;;9.52;8.70;;;;;;;13.46;61.90;101527.19;5046805;28;20399;-74
2022/08/09 02:30:03;;;;;;;8.98;8.18;;;;;;;13.37;63.28;101536.06;5047971;28;20479;-75
2022/08/09 02:32:31;;;;;;;8.25;7.55;;;;;;;13.32;62.93;101543.13;5047433;28;20578;-75
2022/08/09 02:35:02;;;;;;;14.45;9.63;;;;;;;13.28;62.54;101536.97;5047763;28;20099;-74
2022/08/09 02:37:30;;;;;;;10.48;9.57;;;;;;;13.24;62.83;101540.47;5047725;28;20044;-74
2022/08/09 02:40:02;;;;;;;9.85;9.07;;;;;;;13.25;63.46;101536.03;5047764;28;20481;-75
2022/08/09 02:42:35;;;;;;;9.82;8.98;;;;;;;13.22;63.90;101530.75;5047315;28;20048;-75
2022/08/09 02:45:10;;;;;;;9.95;9.15;;;;;;;13.26;63.42;101532.53;5046197;28;20045;-75
2022/08/09 02:47:37;;;;;;;10.32;9.40;;;;;;;13.23;63.77;101532.50;5047518;28;20069;-74
2022/08/09 02:50:12;;;;;;;9.60;8.90;;;;;;;13.21;64.43;101534.28;5047441;28;20112;-75
2022/08/09 02:52:43;;;;;;;9.90;9.10;;;;;;;13.11;64.53;101539.59;5043585;28;20065;-75
2022/08/09 02:55:12;;;;;;;8.95;8.20;;;;;;;13.07;64.47;101543.13;5047278;28;20033;-74
2022/08/09 02:57:39;;;;;;;14.45;8.98;;;;;;;13.14;64.59;101544.00;5047314;28;20095;-74
2022/08/09 03:00:09;;;;;;;9.30;8.60;;;;;;;13.16;64.01;101532.50;5043295;28;20033;-74
2022/08/09 03:02:37;;;;;;;10.75;8.07;;;;;;;13.14;63.81;101536.94;5062115;28;20121;-74
2022/08/09 03:05:04;;;;;;;8.80;8.05;;;;;;;13.14;64.04;101539.56;5029063;28;20124;-74
2022/08/09 03:07:31;;;;;;;9.63;8.82;;;;;;;13.12;64.08;101541.34;5033845;28;20662;-74
2022/08/09 03:09:57;;;;;;;9.73;8.85;;;;;;;13.02;63.82;101544.91;5033854;28;20045;-75
2022/08/09 03:12:24;;;;;;;9.82;8.82;;;;;;;12.99;63.96;101544.00;5040471;28;20533;-74
2022/08/09 03:14:51;;;;;;;10.82;9.73;;;;;;;12.91;64.75;101536.03;5050395;28;20682;-74
2022/08/09 03:17:18;;;;;;;11.27;8.98;;;;;;;12.87;64.39;101540.47;5033728;28;20095;-74
2022/08/09 03:19:43;;;;;;;9.80;8.85;;;;;;;12.84;65.19;101544.91;5030395;28;20121;-75
2022/08/09 03:22:10;;;;;;;12.13;9.48;;;;;;;12.83;65.21;101538.69;5038393;28;20443;-74
2022/08/09 03:24:35;;;;;;;13.43;9.70;;;;;;;12.80;64.74;101532.53;5033483;28;20048;-75
2022/08/09 03:27:04;;;;;;;10.98;10.07;;;;;;;12.79;65.13;101539.59;5033560;28;20124;-75
2022/08/09 03:29:30;;;;;;;9.75;8.95;;;;;;;12.85;65.33;101541.34;5033464;28;20125;-75
2022/08/09 03:31:56;;;;;;;13.35;9.38;;;;;;;12.88;64.59;101549.31;5048339;28;20069;-74
2022/08/09 03:34:21;;;;;;;10.68;9.60;;;;;;;12.86;64.89;101541.38;5033180;28;20072;-75
2022/08/09 03:36:46;;;;;;;11.10;9.75;;;;;;;12.87;64.85;101544.91;5033366;28;20145;-75
2022/08/09 03:39:12;;;;;;;11.70;9.00;;;;;;;12.84;65.04;101551.06;5033289;28;20045;-75
2022/08/09 03:41:37;;;;;;;11.40;9.98;;;;;;;12.83;64.59;101556.34;5033185;28;20045;-75
2022/08/09 03:44:03;;;;;;;11.45;10.25;;;;;;;12.72;65.15;101551.94;5032780;28;20033;-75
2022/08/09 03:46:28;;;;;;;10.77;9.77;;;;;;;12.72;65.92;101557.22;5032757;28;20041;-74
2022/08/09 03:48:57;;;;;;;10.02;9.23;;;;;;;12.77;65.56;101548.41;5032840;28;20451;-74
2022/08/09 03:51:24;;;;;;;10.70;9.85;;;;;;;12.76;65.15;101557.22;5031367;28;20605;-75
2022/08/09 03:53:50;;;;;;;9.93;9.13;;;;;;;12.75;65.83;101552.81;5038704;28;20373;-75
2022/08/09 03:56:16;;;;;;;11.30;10.50;;;;;;;12.75;65.31;101561.66;5032988;28;20048;-75
2022/08/09 03:58:42;;;;;;;11.10;10.20;;;;;;;12.70;65.21;101558.97;5032885;28;20095;-75
2022/08/09 04:01:08;;;;;;;10.25;9.40;;;;;;;12.66;65.91;101556.34;5032688;28;20040;-74
2022/08/09 04:03:34;;;;;;;11.52;10.38;;;;;;;12.67;66.03;101563.41;5032489;28;20025;-75
2022/08/09 04:06:00;;;;;;;10.70;9.75;;;;;;;12.69;66.08;101557.22;5032724;28;20045;-75
2022/08/09 04:08:25;;;;;;;11.23;10.23;;;;;;;12.73;66.18;101563.41;5032783;28;20037;-74
2022/08/09 04:10:51;;;;;;;10.80;9.90;;;;;;;12.78;66.26;101571.38;5032722;28;20099;-75
2022/08/09 04:13:16;;;;;;;11.10;10.00;;;;;;;12.86;65.64;101559.91;5032439;28;20041;-75
2022/08/09 04:15:43;;;;;;;10.52;9.73;;;;;;;12.89;65.20;101562.56;5032199;28;20127;-75
2022/08/09 04:18:09;;;;;;;11.32;10.40;;;;;;;12.93;66.01;101571.38;5031083;28;20034;-74
2022/08/09 04:20:34;;;;;;;10.75;9.95;;;;;;;13.02;65.88;101571.41;5029599;28;20033;-75
2022/08/09 04:23:00;;;;;;;11.43;10.43;;;;;;;13.05;65.75;101571.41;5029139;28;20029;-75
2022/08/09 04:25:25;;;;;;;10.57;9.77;;;;;;;13.09;65.39;101569.63;5029893;28;20037;-74
2022/08/09 04:27:50;;;;;;;10.80;10.00;;;;;;;13.14;65.12;101570.50;5030527;28;20037;-75
2022/08/09 04:30:24;;;;;;;10.65;9.45;;;;;;;13.24;64.80;101582.00;5030455;28;20101;-74
2022/08/09 04:32:50;;;;;;;10.95;10.05;;;;;;;13.28;65.35;101582.03;5029318;28;20728;-75
2022/08/09 04:35:16;;;;;;;9.63;8.85;;;;;;;13.40;65.34;101583.78;5031988;28;20041;-75
2022/08/09 04:37:42;;;;;;;10.45;9.55;;;;;;;13.50;65.08;101572.28;5031468;28;20447;-75
2022/08/09 04:40:09;;;;;;;10.45;9.55;;;;;;;13.64;64.71;101577.56;5031447;28;20114;-75
2022/08/09 04:42:34;;;;;;;10.52;9.52;;;;;;;13.76;64.28;101576.66;5031103;28;20032;-75
2022/08/09 04:45:00;;;;;;;10.70;9.57;;;;;;;13.87;63.99;101584.59;5031622;28;20037;-75
2022/08/09 04:47:27;;;;;;;9.52;8.82;;;;;;;13.99;63.85;101588.09;5031282;28;20912;-75
2022/08/09 04:49:53;;;;;;;10.30;9.55;;;;;;;14.06;64.30;101582.75;5031987;28;20091;-75
2022/08/09 04:52:19;;;;;;;11.63;10.63;;;;;;;14.16;64.13;101588.00;5030813;28;20497;-75
2022/08/09 04:54:46;;;;;;;14.57;13.20;;;;;;;14.29;64.30;101593.28;5030983;28;20037;-75
2022/08/09 04:57:12;;;;;;;16.33;11.90;;;;;;;14.45;64.77;101589.66;5021733;28;20048;-75
2022/08/09 04:59:38;;;;;;;11.63;10.55;;;;;;;14.58;64.57;101590.50;5024630;28;20033;-75
2022/08/09 05:02:03;;;;;;;13.45;12.15;;;;;;;14.71;64.36;101589.53;5030654;28;20389;-74
2022/08/09 05:04:28;;;;;;;12.43;10.90;;;;;;;14.84;64.00;101593.88;5031353;28;20503;-75
2022/08/09 05:06:54;;;;;;;11.02;10.15;;;;;;;14.96;63.59;101594.66;5028092;28;20419;-75
2022/08/09 05:09:20;;;;;;;10.57;9.57;;;;;;;14.97;63.29;101599.97;5029661;28;20040;-75
2022/08/09 05:11:46;;;;;;;13.85;10.40;;;;;;;15.00;63.19;101599.09;5031122;28;20145;-75
2022/08/09 05:14:11;;;;;;;17.67;10.20;;;;;;;15.02;63.28;101603.50;5031538;28;20124;-75
2022/08/09 05:16:36;;;;;;;12.20;10.05;;;;;;;14.99;63.85;101600.88;5031297;28;20048;-75
2022/08/09 05:19:02;;;;;;;11.85;10.48;;;;;;;14.96;64.45;101608.88;5030030;28;20038;-75
2022/08/09 05:21:28;;;;;;;10.57;9.55;;;;;;;14.95;64.30;101609.75;5031107;28;20033;-75
2022/08/09 05:23:53;;;;;;;12.73;9.65;;;;;;;15.05;63.81;101613.22;5031326;28;20033;-75
2022/08/09 05:26:19;;;;;;;12.18;10.45;;;;;;;15.10;63.40;101614.06;5031371;28;20037;-75
2022/08/09 05:28:44;;;;;;;11.52;10.32;;;;;;;15.17;63.33;101610.47;5031154;28;20107;-75
2022/08/09 05:31:10;;;;;;;10.93;10.02;;;;;;;15.37;62.90;101614.75;5030953;28;20116;-75
2022/08/09 05:33:35;;;;;;;11.38;10.20;;;;;;;15.53;62.35;101616.34;5027369;28;20037;-75
2022/08/09 05:36:02;;;;;;;11.55;10.43;;;;;;;15.70;61.80;101613.59;5025340;28;20049;-75
2022/08/09 05:38:28;;;;;;;10.55;9.65;;;;;;;15.88;61.28;101612.50;5031095;28;20033;-75
2022/08/09 05:40:53;;;;;;;11.30;9.73;;;;;;;16.07;60.37;101619.38;5030906;28;20399;-75
2022/08/09 05:43:19;;;;;;;11.38;10.48;;;;;;;16.27;59.54;101623.56;5029391;28;20029;-75
2022/08/09 05:45:44;;;;;;;11.20;10.20;;;;;;;16.52;58.77;101619.69;5029639;28;20446;-75
2022/08/09 05:48:10;;;;;;;18.33;16.15;;;;;;;16.73;57.53;101620.31;5030943;28;20116;-75
2022/08/09 05:50:35;;;;;;;14.10;12.80;;;;;;;16.95;58.00;101627.13;5030949;28;20052;-75
2022/08/09 05:53:00;;;;;;;14.73;13.27;;;;;;;17.13;58.04;101627.75;5030306;28;20033;-75
2022/08/09 05:55:26;;;;;;;14.25;12.93;;;;;;;17.31;57.60;101624.78;5031093;28;20483;-74
2022/08/09 05:57:51;;;;;;;14.10;12.90;;;;;;;17.55;56.92;101639.47;5030805;28;20034;-75
2022/08/09 06:00:17;;;;;;;13.88;12.68;;;;;;;17.65;55.42;101637.53;5031023;28;20084;-75
2022/08/09 06:02:42;;;;;;;14.18;13.18;;;;;;;17.74;54.83;101618.69;5033084;28;20100;-75
2022/08/09 06:05:08;;;;;;;15.35;14.05;;;;;;;17.83;54.65;101623.88;5029352;28;20037;-75
2022/08/09 06:07:36;;;;;;;15.30;14.10;;;;;;;17.84;54.66;101624.75;5032388;28;20176;-75
2022/08/09 06:10:03;;;;;;;15.15;13.68;;;;;;;17.84;54.78;101625.66;5030630;28;20044;-75
2022/08/09 06:12:29;;;;;;;15.10;13.93;;;;;;;17.95;54.67;101626.31;5026641;28;20095;-75
2022/08/09 06:14:54;;;;;;;14.10;12.90;;;;;;;18.06;54.42;101625.25;5029572;28;20116;-75
2022/08/09 06:17:19;;;;;;;13.68;12.27;;;;;;;18.15;53.67;101625.03;5030826;28;20496;-76
2022/08/09 06:19:45;;;;;;;12.57;11.70;;;;;;;18.20;54.18;101625.81;5030549;28;20492;-75
2022/08/09 06:22:10;;;;;;;14.43;13.05;;;;;;;18.29;54.40;101623.00;5030407;28;20048;-75
2022/08/09 06:24:35;;;;;;;13.45;12.40;;;;;;;18.43;53.97;101620.00;5030802;28;20064;-75
2022/08/09 06:27:01;;;;;;;15.32;14.20;;;;;;;18.55;53.81;101626.91;5030684;28;20403;-75
2022/08/09 06:29:26;;;;;;;15.65;14.43;;;;;;;18.69;53.09;101622.13;5025889;28;20480;-76
2022/08/09 06:31:51;;;;;;;14.40;13.07;;;;;;;18.82;52.47;101622.75;5028849;28;20503;-75
2022/08/09 06:34:18;;;;;;;14.15;12.77;;;;;;;18.84;52.12;101620.94;5030383;28;20029;-75
2022/08/09 06:36:44;;;;;;;13.50;12.40;;;;;;;18.83;52.41;101630.72;5012591;28;20042;-75
2022/08/09 06:39:11;;;;;;;13.05;11.77;;;;;;;18.86;52.25;101629.78;5030624;28;20079;-75
2022/08/09 06:41:37;;;;;;;13.05;12.13;;;;;;;18.81;52.05;101637.03;5033502;28;20034;-75
2022/08/09 06:44:08;;;;;;;12.25;11.25;;;;;;;18.84;51.37;101636.97;5031421;28;20052;-75
2022/08/09 06:46:34;;;;;;;13.15;12.18;;;;;;;18.91;51.34;101637.69;5033823;28;20030;-75
2022/08/09 06:48:59;;;;;;;13.60;12.40;;;;;;;19.02;50.97;101641.00;5034133;28;20029;-75
2022/08/09 06:51:24;;;;;;;13.98;12.73;;;;;;;19.17;50.82;101634.41;5033803;28;20077;-75
2022/08/09 06:53:49;;;;;;;15.57;14.30;;;;;;;19.37;50.32;101633.94;5032573;28;20061;-75
2022/08/09 06:56:15;;;;;;;14.27;12.95;;;;;;;19.56;50.03;101640.56;5030118;28;20080;-75
2022/08/09 06:58:40;;;;;;;16.15;14.55;;;;;;;19.67;49.89;101641.19;5030997;28;20103;-75
2022/08/09 07:01:06;;;;;;;14.48;13.38;;;;;;;19.79;49.55;101636.44;5031762;28;20049;-75
2022/08/09 07:03:33;;;;;;;13.98;12.82;;;;;;;19.91;48.93;101638.75;5030738;28;20047;-75
2022/08/09 07:05:59;;;;;;;14.10;12.77;;;;;;;20.03;48.28;101635.75;5031133;28;20095;-75
2022/08/09 07:08:25;;;;;;;13.75;12.85;;;;;;;20.15;47.50;101637.22;5032490;28;20116;-75
2022/08/09 07:10:50;;;;;;;12.85;11.95;;;;;;;20.24;47.51;101639.63;5030199;28;20132;-75
2022/08/09 07:13:16;;;;;;;17.45;15.77;;;;;;;20.32;47.05;101639.41;5031385;28;20049;-75
2022/08/09 07:15:41;;;;;;;14.27;13.27;;;;;;;20.40;47.60;101642.75;5032846;28;20045;-75
2022/08/09 07:18:06;;;;;;;11.90;10.98;;;;;;;20.53;46.75;101643.25;5033362;28;20048;-75
2022/08/09 07:20:32;;;;;;;11.85;11.02;;;;;;;20.70;47.00;101641.00;5033703;28;20049;-75
2022/08/09 07:22:57;;;;;;;14.00;13.02;;;;;;;20.89;45.98;101646.66;5033310;28;20080;-76
2022/08/09 07:25:22;;;;;;;12.43;11.52;;;;;;;20.97;46.70;101639.22;5033682;28;20068;-75
2022/08/09 07:27:48;;;;;;;13.65;12.45;;;;;;;21.13;46.56;101641.44;5030758;28;20071;-75
2022/08/09 07:30:14;;;;;;;12.77;11.82;;;;;;;21.27;45.68;101631.09;5026565;28;20065;-76
2022/08/09 07:32:40;;;;;;;12.35;11.27;;;;;;;21.41;44.91;101645.00;5028941;28;20454;-75
2022/08/09 07:35:09;;;;;;;14.38;13.07;;;;;;;21.54;44.16;101647.28;5030343;28;20747;-75
2022/08/09 07:37:34;;;;;;;13.65;12.52;;;;;;;21.59;44.52;101658.75;5030692;28;20040;-75
2022/08/09 07:40:00;;;;;;;13.63;12.52;;;;;;;21.69;43.79;101646.72;5031143;28;20112;-75
2022/08/09 07:42:25;;;;;;;14.75;13.75;;;;;;;21.81;43.67;101643.59;5030626;28;20811;-75
2022/08/09 07:44:50;;;;;;;15.10;13.93;;;;;;;21.96;43.06;101652.06;5030417;28;20069;-75
2022/08/09 07:47:16;;;;;;;14.45;13.35;;;;;;;22.06;42.70;101648.09;5030607;28;20048;-75
2022/08/09 07:49:42;;;;;;;16.33;14.95;;;;;;;22.15;42.85;101645.09;5031657;28;20041;-75
2022/08/09 07:52:08;;;;;;;15.35;14.23;;;;;;;22.30;42.05;101649.06;5031455;28;20380;-73
2022/08/09 07:54:34;;;;;;;14.73;13.73;;;;;;;22.38;41.98;101640.72;5031218;28;20052;-73
2022/08/09 07:56:59;;;;;;;15.05;13.52;;;;;;;22.54;41.84;101645.44;5032602;28;20128;-72
2022/08/09 07:59:25;;;;;;;13.35;12.38;;;;;;;22.65;41.22;101636.94;5033666;28;20084;-73
2022/08/09 08:01:50;;;;;;;13.50;12.48;;;;;;;22.84;41.33;101642.47;5047742;28;20037;-73
2022/08/09 08:04:15;;;;;;;11.55;10.75;;;;;;;23.00;40.06;101639.19;5032461;28;20095;-73
2022/08/09 08:06:41;;;;;;;12.52;11.68;;;;;;;23.13;40.11;101640.44;5035971;28;20407;-73
2022/08/09 08:09:06;;;;;;;11.15;10.52;;;;;;;23.24;39.44;101637.31;5034208;28;20048;-73
2022/08/09 08:11:32;;;;;;;12.10;11.30;;;;;;;23.33;38.99;101631.56;5035146;28;20041;-73
2022/08/09 08:13:57;;;;;;;12.35;11.63;;;;;;;23.38;37.67;101637.63;5049575;28;20072;-73
2022/08/09 08:16:23;;;;;;;11.63;10.82;;;;;;;23.51;37.75;101630.78;5033900;28;20048;-73
2022/08/09 08:18:48;;;;;;;11.10;10.40;;;;;;;23.66;37.58;101633.72;5032635;28;20034;-73
2022/08/09 08:21:14;;;;;;;10.25;9.50;;;;;;;23.81;36.79;101627.72;5014326;28;20041;-73
2022/08/09 08:23:39;;;;;;;11.10;10.00;;;;;;;23.95;37.06;101624.41;5032326;28;20040;-73
2022/08/09 08:26:04;;;;;;;11.00;10.10;;;;;;;24.06;36.28;101625.69;5032202;28;20419;-73
2022/08/09 08:28:30;;;;;;;11.50;10.68;;;;;;;24.16;36.55;101622.56;5014435;28;20403;-73
2022/08/09 08:30:55;;;;;;;11.63;10.82;;;;;;;24.26;35.95;101621.19;5032257;28;20041;-73
2022/08/09 08:33:21;;;;;;;15.10;13.88;;;;;;;24.32;35.84;101620.91;5031769;28;20043;-73
2022/08/09 08:35:46;;;;;;;11.50;10.35;;;;;;;24.39;35.44;101621.50;5030799;28;20041;-73
2022/08/09 08:38:11;;;;;;;12.05;11.25;;;;;;;24.53;35.77;101629.00;5032194;28;20044;-73
2022/08/09 08:40:37;;;;;;;10.32;9.65;;;;;;;24.58;33.61;101621.56;5012934;28;20120;-73
2022/08/09 08:43:03;;;;;;;11.55;10.95;;;;;;;24.58;33.08;101621.56;5029807;28;20018;-73
2022/08/09 08:45:32;;;;;;;10.82;9.98;;;;;;;24.71;33.33;101622.72;5030701;28;20079;-73
2022/08/09 08:47:58;;;;;;;10.13;9.30;;;;;;;24.86;33.93;101623.78;5028821;28;20030;-73
2022/08/09 08:50:23;;;;;;;9.13;8.52;;;;;;;24.96;33.22;101622.38;5030156;28;20091;-73
2022/08/09 08:52:51;;;;;;;9.98;9.38;;;;;;;25.09;33.24;101619.94;5028563;28;20045;-73
2022/08/09 08:55:16;;;;;;;10.00;9.00;;;;;;;25.09;32.77;101628.06;5027144;28;20076;-73
2022/08/09 08:57:42;;;;;;;11.32;10.43;;;;;;;25.10;32.90;101616.31;5032005;28;20700;-73
2022/08/09 09:00:09;;;;;;;10.43;9.73;;;;;;;25.30;32.32;101620.75;5031847;28;20076;-73
2022/08/09 09:02:34;;;;;;;10.60;9.70;;;;;;;25.40;32.45;101615.75;5029796;28;20034;-73
2022/08/09 09:05:00;;;;;;;10.95;10.18;;;;;;;25.53;31.72;101616.88;5031474;28;20033;-73
2022/08/09 09:07:29;;;;;;;11.23;10.32;;;;;;;25.66;32.65;101609.88;5027738;28;20400;-73
2022/08/09 09:09:55;;;;;;;10.93;9.48;;;;;;;25.86;31.92;101618.78;5030431;28;20057;-73
2022/08/09 09:12:22;;;;;;;11.27;10.57;;;;;;;25.98;31.57;101618.13;5030882;28;20152;-73
2022/08/09 09:14:50;;;;;;;10.93;9.95;;;;;;;25.97;30.10;101611.84;5030141;28;20084;-73
2022/08/09 09:17:15;;;;;;;11.65;9.50;;;;;;;26.01;30.08;101618.81;5029666;28;20037;-73
2022/08/09 09:19:42;;;;;;;11.02;9.77;;;;;;;26.00;30.01;101610.81;5030271;28;20048;-73
2022/08/09 09:22:15;;;;;;;10.93;9.98;;;;;;;26.15;29.18;101612.69;5030814;28;20034;-73
2022/08/09 09:24:43;;;;;;;11.25;10.35;;;;;;;26.22;29.30;101605.97;5031308;28;20048;-73
2022/08/09 09:27:11;;;;;;;10.60;9.90;;;;;;;26.21;29.23;101609.66;5030727;28;20044;-74
2022/08/09 09:29:41;;;;;;;9.93;9.30;;;;;;;26.37;29.80;101608.81;5031109;28;20083;-73
2022/08/09 09:32:08;;;;;;;11.93;11.20;;;;;;;26.43;29.07;101612.03;5030285;28;20034;-73
2022/08/09 09:34:33;;;;;;;11.30;10.48;;;;;;;26.64;29.50;101607.28;5030375;28;20040;-73
2022/08/09 09:37:00;;;;;;;11.60;10.68;;;;;;;26.92;29.34;101602.13;5030893;28;20033;-73
2022/08/09 09:39:27;;;;;;;10.98;10.07;;;;;;;27.14;28.29;101599.91;5023345;28;20033;-73
2022/08/09 09:41:53;;;;;;;10.77;9.95;;;;;;;27.19;28.06;101602.38;5030496;28;20095;-74
2022/08/09 09:44:26;;;;;;;11.00;10.30;;;;;;;27.19;28.09;101605.09;5046243;28;20112;-74
2022/08/09 09:47:02;;;;;;;11.25;10.23;;;;;;;27.20;27.06;101602.28;5031165;28;20049;-74
2022/08/09 09:49:27;;;;;;;11.10;10.30;;;;;;;27.27;28.03;101606.41;5030889;28;20037;-74
2022/08/09 09:52:03;;;;;;;12.50;11.63;;;;;;;27.64;27.71;101592.44;5030512;28;20123;-74
2022/08/09 09:54:41;;;;;;;11.82;11.02;;;;;;;28.07;26.85;101595.25;5027319;28;20056;-74
2022/08/09 09:57:18;;;;;;;11.45;10.70;;;;;;;28.39;26.80;101585.91;5029807;28;20553;-74
2022/08/09 09:59:45;;;;;;;10.88;10.18;;;;;;;28.87;26.95;101595.53;5027631;28;20527;-74
2022/08/09 10:02:12;;;;;;;12.18;10.90;;;;;;;29.02;26.08;101591.81;5030724;28;20060;-74
2022/08/09 10:04:38;;;;;;;11.38;10.57;;;;;;;29.29;26.02;101586.38;5029805;28;20033;-74
2022/08/09 10:07:05;;;;;;;11.82;10.88;;;;;;;29.51;26.04;101591.22;5031058;28;20045;-75
2022/08/09 10:13:17;;;;;;;11.98;10.90;;;;;;;29.23;25.48;101581.34;5029641;28;20036;-74
2022/08/09 10:15:50;;;;;;;12.50;11.40;;;;;;;28.95;25.83;101582.31;5037007;28;20052;-74
2022/08/09 10:18:16;;;;;;;11.60;10.70;;;;;;;28.45;25.90;101581.94;5034758;28;20037;-75
2022/08/09 10:20:42;;;;;;;11.80;10.70;;;;;;;28.05;26.67;101589.03;5034928;28;20029;-75
2022/08/09 10:23:15;;;;;;;11.23;10.43;;;;;;;27.94;27.26;101589.72;5034472;28;20033;-74
2022/08/09 10:25:40;;;;;;;11.40;10.60;;;;;;;27.76;27.54;101588.97;5033961;28;20033;-74
2022/08/09 10:28:07;;;;;;;10.57;9.82;;;;;;;27.78;27.14;101583.47;5031203;28;20077;-74
2022/08/09 10:30:32;;;;;;;12.52;11.35;;;;;;;27.71;26.83;101588.38;5033958;28;20029;-73
2022/08/09 10:32:59;;;;;;;12.50;11.73;;;;;;;27.73;27.39;101587.31;5032496;28;20025;-74
2022/08/09 10:35:24;;;;;;;12.18;11.43;;;;;;;27.92;26.75;101587.09;5034949;28;20046;-74
2022/08/09 10:37:51;;;;;;;12.02;11.13;;;;;;;27.81;27.27;101589.59;5034271;28;20041;-74
2022/08/09 10:40:16;;;;;;;11.55;10.65;;;;;;;27.79;27.44;101580.66;5034560;28;20119;-74
2022/08/09 10:42:41;;;;;;;11.52;10.82;;;;;;;27.95;27.66;101586.03;5033894;28;20029;-75
2022/08/09 10:45:10;;;;;;;12.93;12.13;;;;;;;28.17;26.46;101580.13;5034445;28;20041;-74
2022/08/09 10:47:41;;;;;;;11.85;11.13;;;;;;;28.14;26.69;101580.34;5034196;28;20037;-75
2022/08/09 10:50:22;;;;;;;11.55;10.85;;;;;;;28.33;26.78;101580.88;5034385;28;20034;-74
2022/08/09 10:53:18;;;;;;;12.73;11.97;;;;;;;28.34;26.46;101574.47;5029869;28;20057;-74
2022/08/09 10:55:43;;;;;;;11.27;10.48;;;;;;;28.53;26.14;101573.31;5030831;28;20276;-74
2022/08/09 10:58:28;;;;;;;11.95;11.15;;;;;;;28.56;25.63;101578.56;5029745;28;20660;-74
2022/08/09 11:00:54;;;;;;;11.70;10.90;;;;;;;28.62;25.60;101575.44;5031753;28;20411;-74
2022/08/09 11:03:24;;;;;;;12.27;11.57;;;;;;;28.82;25.23;101577.72;5032949;28;20037;-74
2022/08/09 11:06:20;;;;;;;11.70;10.90;;;;;;;28.95;24.73;101566.00;5034028;28;20396;-74
2022/08/09 11:08:47;;;;;;;12.90;12.02;;;;;;;29.14;25.18;101576.56;5029022;28;20041;-73
2022/08/09 11:11:13;;;;;;;12.93;11.68;;;;;;;29.19;25.53;101574.41;5030859;28;20044;-74
2022/08/09 11:13:38;;;;;;;12.00;11.20;;;;;;;29.19;25.04;101569.84;5033273;28;20033;-74
2022/08/09 11:16:33;;;;;;;12.82;11.63;;;;;;;29.60;24.45;101566.06;5032347;28;20415;-74
2022/08/09 11:18:58;;;;;;;12.70;11.90;;;;;;;30.00;24.02;101567.84;5028251;28;20377;-74